Time;durP1;ratioP1;P1;durP2;ratioP2;P2;SDS_P1;SDS_P2;PMS_P1;PMS_P2;Temp;Humidity;BMP_temperature;BMP_pressure;BME280_temperature;BME280_humidity;BME280_pressure;Samples;Min_cycle;Max_cycle;Signal;HPM_P1;HPM_P2
2021/01/08 00:00:46;;;;;;;16.17;8.82;;;;;;;4.94;80.97;93053.50;5092492;28;20066;-51
2021/01/08 00:03:11;;;;;;;20.63;11.48;;;;;;;4.89;82.09;93057.09;5092414;28;20032;-53
2021/01/08 00:05:37;;;;;;;19.48;10.55;;;;;;;4.93;82.01;93045.84;5092350;28;20042;-54
2021/01/08 00:08:02;;;;;;;12.68;8.63;;;;;;;4.91;82.10;93049.09;5092363;28;20050;-55
2021/01/08 00:10:29;;;;;;;7.63;4.18;;;;;;;4.89;82.57;93037.19;5092030;28;20039;-51
2021/01/08 00:12:54;;;;;;;5.07;2.95;;;;;;;4.99;81.78;93039.00;5092322;28;20416;-55
2021/01/08 00:15:20;;;;;;;5.32;3.53;;;;;;;4.98;82.23;93034.78;5092250;28;20050;-53
2021/01/08 00:17:45;;;;;;;6.38;4.75;;;;;;;5.02;82.16;93031.75;5091874;28;20026;-50
2021/01/08 00:20:11;;;;;;;5.22;3.70;;;;;;;5.03;82.27;93023.03;5091211;28;20035;-51
2021/01/08 00:22:36;;;;;;;4.80;3.75;;;;;;;5.14;81.28;93016.63;5092219;28;20081;-52
2021/01/08 00:25:02;;;;;;;10.95;7.70;;;;;;;5.18;81.16;93028.00;5090689;28;20044;-51
2021/01/08 00:27:27;;;;;;;13.55;9.10;;;;;;;5.20;81.72;93030.94;5092030;28;20032;-52
2021/01/08 00:29:53;;;;;;;10.80;7.25;;;;;;;5.12;81.72;93019.88;5091629;28;20035;-51
2021/01/08 00:32:19;;;;;;;8.25;6.40;;;;;;;5.21;81.88;93032.44;5091700;28;20027;-53
2021/01/08 00:34:45;;;;;;;10.45;6.82;;;;;;;5.33;81.36;93028.22;5089939;28;20046;-53
2021/01/08 00:37:10;;;;;;;10.93;6.63;;;;;;;5.30;81.13;93023.81;5089818;28;20023;-54
2021/01/08 00:39:36;;;;;;;9.10;6.00;;;;;;;5.24;81.47;93020.44;5089740;28;20027;-50
2021/01/08 00:42:02;;;;;;;5.35;3.45;;;;;;;5.16;81.26;93011.38;5089775;28;20420;-48
2021/01/08 00:44:28;;;;;;;5.70;3.90;;;;;;;5.18;80.79;93011.56;5089721;28;20032;-50
2021/01/08 00:46:53;;;;;;;5.50;3.63;;;;;;;5.21;80.98;93008.53;5089698;28;20035;-45
2021/01/08 00:49:19;;;;;;;5.22;3.88;;;;;;;5.21;81.18;93007.78;5091055;28;20028;-53
2021/01/08 00:51:45;;;;;;;5.80;3.50;;;;;;;4.95;81.55;92999.53;5090467;28;20519;-50
2021/01/08 00:54:10;;;;;;;5.70;4.38;;;;;;;5.03;81.64;93003.88;5091833;28;20404;-46
2021/01/08 00:56:36;;;;;;;7.25;5.30;;;;;;;5.01;82.00;92991.97;5091493;28;20054;-48
2021/01/08 00:59:01;;;;;;;4.30;3.13;;;;;;;5.02;81.38;93004.41;5091592;28;20028;-44
2021/01/08 01:01:27;;;;;;;3.75;2.65;;;;;;;5.01;81.15;93002.91;5091550;28;20020;-55
2021/01/08 01:03:53;;;;;;;3.78;3.13;;;;;;;4.98;81.34;93004.69;5091454;28;20050;-53
2021/01/08 01:06:31;;;;;;;2.80;2.60;;;;;;;5.04;81.66;92997.16;5091305;28;20111;-59
2021/01/08 01:08:57;;;;;;;3.10;2.35;;;;;;;5.08;81.10;93007.78;5091392;28;20028;-59
2021/01/08 01:11:25;;;;;;;3.17;2.45;;;;;;;5.04;81.05;93008.09;5091217;28;20040;-58
2021/01/08 01:13:51;;;;;;;3.13;2.17;;;;;;;4.95;80.65;93013.22;5091364;28;20489;-58
2021/01/08 01:16:19;;;;;;;2.67;2.22;;;;;;;4.85;80.75;92985.53;5091408;28;20164;-58
2021/01/08 01:18:50;;;;;;;2.42;1.95;;;;;;;4.83;80.55;92984.59;5091445;28;20050;-53
2021/01/08 01:21:15;;;;;;;2.97;2.30;;;;;;;4.68;81.39;93008.97;5089451;28;20481;-50
2021/01/08 01:23:41;;;;;;;2.75;2.17;;;;;;;4.61;81.51;93010.31;5090401;28;20036;-51
2021/01/08 01:26:07;;;;;;;1.95;1.65;;;;;;;4.63;81.30;93013.25;5091310;28;20024;-51
2021/01/08 01:28:33;;;;;;;2.22;1.48;;;;;;;4.57;81.55;93018.78;5091364;28;20034;-53
2021/01/08 01:30:59;;;;;;;0.98;0.98;;;;;;;4.64;81.13;93017.44;5091264;28;20024;-55
2021/01/08 01:33:24;;;;;;;1.20;1.10;;;;;;;4.64;80.92;93003.78;5091336;28;20142;-54
2021/01/08 01:35:50;;;;;;;0.55;0.50;;;;;;;4.63;80.43;93004.31;5091353;28;20039;-56
2021/01/08 01:38:15;;;;;;;2.22;0.80;;;;;;;4.50;80.72;92997.50;5091225;28;20539;-54
2021/01/08 01:40:41;;;;;;;2.28;1.35;;;;;;;4.42;80.90;92995.91;5091187;28;20027;-50
2021/01/08 01:43:06;;;;;;;0.80;0.80;;;;;;;4.48;81.26;92997.31;5093008;28;20055;-48
2021/01/08 01:45:32;;;;;;;4.57;1.17;;;;;;;4.42;80.88;92985.72;5095211;28;20030;-54
2021/01/08 01:47:58;;;;;;;2.67;1.85;;;;;;;4.32;80.47;93006.50;5095180;28;20030;-52
2021/01/08 01:50:24;;;;;;;7.32;2.85;;;;;;;4.39;80.63;93010.63;5093826;28;20077;-53
2021/01/08 01:52:49;;;;;;;4.30;2.08;;;;;;;4.43;81.15;92995.41;5094981;28;20052;-51
2021/01/08 01:55:15;;;;;;;4.35;2.28;;;;;;;4.46;80.20;92988.16;5093880;28;20511;-50
2021/01/08 01:57:41;;;;;;;3.03;2.08;;;;;;;4.37;79.60;92997.50;5094872;28;20047;-53
2021/01/08 02:00:07;;;;;;;3.53;1.80;;;;;;;4.30;79.77;92992.63;5094855;28;20439;-53
2021/01/08 02:02:53;;;;;;;2.08;1.13;;;;;;;4.27;79.83;92985.44;5094865;28;20036;-50
2021/01/08 02:05:20;;;;;;;1.33;1.20;;;;;;;4.30;79.67;92989.88;5094409;28;20059;-49
2021/01/08 02:07:59;;;;;;;2.08;1.30;;;;;;;4.33;79.47;92986.09;5094899;28;20028;-50
2021/01/08 02:10:26;;;;;;;8.00;3.58;;;;;;;4.23;80.10;92984.28;5093352;28;20123;-52
2021/01/08 02:12:52;;;;;;;3.58;2.42;;;;;;;4.22;80.63;92975.34;5094581;28;20036;-50
2021/01/08 02:15:19;;;;;;;12.90;7.68;;;;;;;4.08;80.63;92960.16;5093406;28;20059;-49
2021/01/08 02:17:45;;;;;;;3.25;1.95;;;;;;;4.02;80.01;92978.63;5094335;28;20036;-53
2021/01/08 02:20:11;;;;;;;1.33;1.17;;;;;;;3.96;80.11;92974.50;5093142;28;20028;-50
2021/01/08 02:22:49;;;;;;;1.92;1.63;;;;;;;4.01;80.92;92979.88;5093237;28;20024;-50
2021/01/08 02:25:26;;;;;;;1.47;1.00;;;;;;;3.96;80.45;92979.94;5094443;28;20028;-49
2021/01/08 02:28:00;;;;;;;2.00;1.60;;;;;;;4.05;80.23;92977.56;5093147;28;20031;-46
2021/01/08 02:30:26;;;;;;;3.72;2.03;;;;;;;4.09;80.13;92982.75;5094257;28;20122;-48
2021/01/08 02:32:52;;;;;;;4.97;3.58;;;;;;;3.93;80.29;92986.44;5092862;28;20479;-49
2021/01/08 02:35:17;;;;;;;2.25;1.77;;;;;;;3.83;80.42;92975.88;5092770;28;20024;-50
2021/01/08 02:37:43;;;;;;;1.58;1.40;;;;;;;3.86;79.68;92971.38;5092938;28;20031;-44
2021/01/08 02:40:12;;;;;;;2.28;1.58;;;;;;;3.78;80.32;92965.03;5094146;28;20020;-54
2021/01/08 02:42:40;;;;;;;1.05;0.70;;;;;;;3.81;80.48;92958.56;5094161;28;20028;-50
2021/01/08 02:45:06;;;;;;;1.02;0.90;;;;;;;3.79;80.64;92950.13;5094095;28;20077;-44
2021/01/08 02:47:32;;;;;;;1.17;1.00;;;;;;;3.91;80.81;92940.53;5093850;28;20494;-44
2021/01/08 02:49:57;;;;;;;3.42;1.58;;;;;;;3.77;81.20;92947.16;5093979;28;20108;-44
2021/01/08 02:52:23;;;;;;;0.90;0.80;;;;;;;3.80;80.78;92938.69;5093812;28;20035;-43
2021/01/08 02:54:48;;;;;;;1.80;1.13;;;;;;;3.79;80.80;92937.22;5092344;28;20028;-43
2021/01/08 02:57:14;;;;;;;1.65;1.20;;;;;;;3.83;80.24;92937.66;5093934;28;20466;-43
2021/01/08 02:59:40;;;;;;;2.05;1.33;;;;;;;3.84;81.11;92932.94;5092475;28;20553;-44
2021/01/08 03:02:06;;;;;;;3.50;2.72;;;;;;;3.68;80.81;92931.19;5092556;28;20028;-43
2021/01/08 03:04:32;;;;;;;1.50;1.40;;;;;;;3.80;80.16;92924.31;5092431;28;20038;-43
2021/01/08 03:06:59;;;;;;;2.28;1.80;;;;;;;3.73;80.66;92914.72;5092411;28;20051;-43
2021/01/08 03:09:25;;;;;;;3.60;2.55;;;;;;;3.81;80.79;92920.34;5093822;28;20027;-42
2021/01/08 03:11:54;;;;;;;2.70;1.90;;;;;;;3.91;80.91;92937.06;5092092;28;20046;-42
2021/01/08 03:14:20;;;;;;;12.43;6.13;;;;;;;3.91;79.99;92932.34;5093600;28;20028;-43
2021/01/08 03:16:46;;;;;;;1.50;0.95;;;;;;;3.89;80.48;92937.59;5092154;28;20111;-44
2021/01/08 03:19:12;;;;;;;2.03;1.25;;;;;;;3.67;80.50;92921.50;5093291;28;20116;-46
2021/01/08 03:21:37;;;;;;;1.40;1.05;;;;;;;3.80;79.98;92929.75;5093182;28;20016;-43
2021/01/08 03:24:03;;;;;;;3.42;2.10;;;;;;;3.75;80.43;92928.59;5093107;28;20024;-46
2021/01/08 03:26:28;;;;;;;4.00;2.28;;;;;;;3.84;80.00;92930.94;5093150;28;20024;-44
2021/01/08 03:28:53;;;;;;;3.78;1.98;;;;;;;3.76;80.21;92924.59;5093146;28;20034;-44
2021/01/08 03:31:19;;;;;;;2.72;1.40;;;;;;;3.69;81.19;92913.53;5093113;28;20024;-43
2021/01/08 03:33:44;;;;;;;3.08;1.08;;;;;;;3.83;80.78;92915.81;5093134;28;20073;-48
2021/01/08 03:36:10;;;;;;;1.75;1.20;;;;;;;3.82;79.71;92924.53;5092946;28;20024;-46
2021/01/08 03:38:35;;;;;;;1.38;1.23;;;;;;;3.75;79.44;92919.66;5093084;28;20050;-46
2021/01/08 03:41:01;;;;;;;1.55;1.23;;;;;;;3.74;79.81;92905.28;5092804;28;20024;-47
2021/01/08 03:43:26;;;;;;;1.98;1.15;;;;;;;3.84;79.39;92905.63;5092947;28;20038;-46
2021/01/08 03:45:52;;;;;;;0.98;0.82;;;;;;;3.71;79.48;92909.03;5092855;28;20027;-52
2021/01/08 03:48:17;;;;;;;2.08;1.30;;;;;;;3.68;79.92;92915.53;5092650;28;20035;-51
2021/01/08 03:50:43;;;;;;;3.63;2.10;;;;;;;3.74;80.20;92913.47;5092468;28;20023;-47
2021/01/08 03:53:08;;;;;;;6.13;3.83;;;;;;;3.82;80.46;92914.34;5092717;28;20069;-46
2021/01/08 03:55:34;;;;;;;11.50;7.45;;;;;;;4.08;79.98;92899.31;5092731;28;20066;-52
2021/01/08 03:58:00;;;;;;;17.27;10.55;;;;;;;4.08;79.82;92891.13;5092686;28;20016;-52
2021/01/08 04:00:25;;;;;;;15.90;7.53;;;;;;;4.04;79.82;92885.97;5092486;28;20553;-51
2021/01/08 04:02:51;;;;;;;12.43;7.55;;;;;;;4.03;80.04;92881.75;5092555;28;20036;-49
2021/01/08 04:05:16;;;;;;;41.85;17.25;;;;;;;3.89;79.40;92857.66;5091786;28;20024;-48
2021/01/08 04:07:42;;;;;;;6.30;4.13;;;;;;;3.76;80.53;92864.53;5092316;28;20028;-50
2021/01/08 04:10:08;;;;;;;4.93;2.67;;;;;;;3.67;81.62;92862.19;5092316;28;20043;-48
2021/01/08 04:12:33;;;;;;;3.35;1.77;;;;;;;3.66;81.44;92857.25;5092395;28;20032;-46
2021/01/08 04:14:58;;;;;;;2.58;1.80;;;;;;;3.75;79.91;92856.84;5092276;28;20042;-50
2021/01/08 04:17:24;;;;;;;2.08;1.35;;;;;;;3.83;79.77;92855.72;5092222;28;20031;-51
2021/01/08 04:19:49;;;;;;;1.60;1.10;;;;;;;3.75;79.98;92865.78;5092055;28;20028;-46
2021/01/08 04:22:15;;;;;;;1.80;1.58;;;;;;;3.81;79.96;92858.25;5092170;28;20032;-53
2021/01/08 04:24:41;;;;;;;2.67;1.80;;;;;;;4.01;79.42;92850.75;5092269;28;20036;-55
2021/01/08 04:27:06;;;;;;;2.47;1.67;;;;;;;4.07;79.49;92848.69;5091987;28;20477;-50
2021/01/08 04:29:31;;;;;;;7.85;4.60;;;;;;;3.86;79.83;92837.56;5092115;28;20021;-51
2021/01/08 04:31:57;;;;;;;2.47;1.95;;;;;;;3.96;79.38;92833.22;5091904;28;20501;-50
2021/01/08 04:34:22;;;;;;;1.65;1.40;;;;;;;4.01;79.11;92837.84;5092070;28;20540;-52
2021/01/08 04:36:48;;;;;;;1.92;1.35;;;;;;;4.09;78.46;92837.97;5091832;28;20404;-49
2021/01/08 04:39:13;;;;;;;3.60;1.92;;;;;;;4.04;79.50;92839.53;5091839;28;20036;-47
2021/01/08 04:41:39;;;;;;;1.95;1.67;;;;;;;4.19;79.31;92822.66;5091683;28;20050;-54
2021/01/08 04:44:05;;;;;;;2.55;1.60;;;;;;;4.21;78.88;92826.34;5090635;28;20489;-58
2021/01/08 04:46:32;;;;;;;4.07;2.03;;;;;;;4.18;78.62;92837.59;5091792;28;20460;-59
2021/01/08 04:49:00;;;;;;;5.47;2.90;;;;;;;4.19;79.17;92825.38;5091840;28;20035;-59
2021/01/08 04:51:27;;;;;;;7.93;4.07;;;;;;;4.24;79.24;92814.38;5091627;28;20034;-58
2021/01/08 04:53:53;;;;;;;4.63;3.30;;;;;;;4.37;78.20;92813.66;5089207;28;20027;-55
2021/01/08 04:56:22;;;;;;;6.43;3.38;;;;;;;4.06;79.57;92834.28;5090164;28;20039;-52
2021/01/08 04:58:47;;;;;;;4.25;3.40;;;;;;;4.10;79.64;92817.56;5090432;28;20028;-52
2021/01/08 05:01:13;;;;;;;4.15;3.30;;;;;;;4.18;80.16;92821.91;5090354;28;20459;-52
2021/01/08 05:03:38;;;;;;;6.47;3.88;;;;;;;4.24;79.07;92819.84;5091622;28;20028;-49
2021/01/08 05:06:04;;;;;;;4.00;2.70;;;;;;;4.22;79.43;92808.66;5091409;28;20035;-52
2021/01/08 05:08:29;;;;;;;4.43;2.85;;;;;;;3.88;79.39;92799.56;5091448;28;20085;-47
2021/01/08 05:10:56;;;;;;;3.92;3.17;;;;;;;3.80;80.48;92826.75;5091331;28;20046;-48
2021/01/08 05:13:21;;;;;;;2.63;2.28;;;;;;;3.94;80.70;92815.88;5091423;28;20040;-48
2021/01/08 05:15:51;;;;;;;2.65;2.15;;;;;;;3.86;79.76;92799.34;5091385;28;20020;-46
2021/01/08 05:18:17;;;;;;;4.80;2.33;;;;;;;3.80;80.68;92801.44;5095472;28;20036;-46
2021/01/08 05:20:43;;;;;;;2.15;1.60;;;;;;;3.65;81.82;92815.56;5095718;28;20024;-44
2021/01/08 05:23:10;;;;;;;12.05;5.30;;;;;;;3.84;81.75;92799.13;5095525;28;20036;-44
2021/01/08 05:25:36;;;;;;;7.70;5.53;;;;;;;3.92;81.68;92800.00;5095536;28;20099;-47
2021/01/08 05:28:01;;;;;;;7.22;5.38;;;;;;;4.06;80.93;92806.22;5095545;28;20126;-49
2021/01/08 05:30:27;;;;;;;6.78;4.13;;;;;;;4.03;80.61;92812.75;5095305;28;20028;-43
2021/01/08 05:33:00;;;;;;;12.05;6.47;;;;;;;4.25;80.01;92815.09;5094303;28;20036;-48
2021/01/08 05:35:28;;;;;;;7.30;4.68;;;;;;;4.26;79.55;92817.31;5095503;28;20408;-48
2021/01/08 05:37:54;;;;;;;12.70;7.15;;;;;;;4.32;79.64;92820.69;5095165;28;20039;-48
2021/01/08 05:40:27;;;;;;;10.68;6.07;;;;;;;4.40;78.77;92810.59;5095288;28;20024;-48
2021/01/08 05:43:00;;;;;;;8.07;4.20;;;;;;;4.09;79.10;92813.38;5095149;28;20514;-50
2021/01/08 05:45:26;;;;;;;5.15;3.75;;;;;;;4.17;78.98;92822.44;5095144;28;20055;-50
2021/01/08 05:47:54;;;;;;;3.80;3.20;;;;;;;4.17;79.54;92809.50;5095091;28;20032;-49
2021/01/08 05:50:22;;;;;;;11.93;5.72;;;;;;;4.07;79.93;92794.78;5095008;28;20023;-54
2021/01/08 05:52:54;;;;;;;6.35;4.60;;;;;;;4.29;79.36;92810.03;5095188;28;20028;-53
2021/01/08 05:55:20;;;;;;;7.32;4.30;;;;;;;4.11;79.39;92794.47;5093925;28;20085;-55
2021/01/08 05:57:46;;;;;;;8.82;3.67;;;;;;;4.12;79.57;92791.22;5094967;28;20024;-53
2021/01/08 06:00:11;;;;;;;25.83;8.48;;;;;;;4.22;80.01;92794.28;5095384;28;20546;-49
2021/01/08 06:02:38;;;;;;;25.08;14.48;;;;;;;4.24;80.05;92778.84;5096759;28;20032;-46
2021/01/08 06:05:08;;;;;;;26.88;14.55;;;;;;;4.38;79.50;92768.66;5093523;28;20488;-47
2021/01/08 06:07:38;;;;;;;69.07;27.30;;;;;;;4.30;79.15;92749.41;5094629;28;20024;-44
2021/01/08 06:10:05;;;;;;;23.23;12.93;;;;;;;4.45;79.25;92757.84;5094518;28;20055;-46
2021/01/08 06:12:39;;;;;;;8.63;5.82;;;;;;;4.42;78.94;92774.53;5094511;28;20436;-50
2021/01/08 06:15:10;;;;;;;4.40;3.03;;;;;;;4.51;79.12;92777.59;5094539;28;20023;-44
2021/01/08 06:17:37;;;;;;;5.13;2.67;;;;;;;4.45;78.96;92771.50;5094351;28;20024;-44
2021/01/08 06:20:04;;;;;;;7.65;4.70;;;;;;;4.63;78.63;92773.38;5093057;28;20497;-45
2021/01/08 06:22:39;;;;;;;5.85;3.22;;;;;;;4.63;78.69;92782.84;5098424;28;20036;-45
2021/01/08 06:25:09;;;;;;;6.72;4.20;;;;;;;4.63;78.91;92786.31;5094511;28;20165;-48
2021/01/08 06:27:36;;;;;;;13.90;5.85;;;;;;;4.63;78.90;92788.31;5107018;28;20038;-48
2021/01/08 06:30:06;;;;;;;28.80;16.35;;;;;;;4.20;79.18;92753.81;5101209;28;20019;-47
2021/01/08 06:32:32;;;;;;;28.55;14.38;;;;;;;4.34;79.88;92781.88;5113077;28;20038;-47
2021/01/08 06:35:07;;;;;;;8.38;6.00;;;;;;;4.43;80.04;92792.41;5109403;28;20035;-45
2021/01/08 06:37:42;;;;;;;2.80;2.13;;;;;;;4.38;79.45;92795.97;5114671;28;20393;-48
2021/01/08 06:40:12;;;;;;;4.07;2.20;;;;;;;4.42;79.43;92790.94;5114333;28;20027;-45
2021/01/08 06:42:47;;;;;;;6.00;4.70;;;;;;;4.38;78.17;92780.31;5110345;28;20553;-45
2021/01/08 06:45:15;;;;;;;5.80;3.63;;;;;;;4.50;78.31;92795.25;5104547;28;20032;-45
2021/01/08 06:47:47;;;;;;;12.50;6.88;;;;;;;4.38;79.00;92780.31;5104925;28;20016;-45
2021/01/08 06:50:16;;;;;;;6.35;3.65;;;;;;;4.35;77.80;92762.22;5102429;28;20504;-45
2021/01/08 06:52:47;;;;;;;5.38;3.67;;;;;;;4.47;77.97;92777.16;5104088;28;20020;-49
2021/01/08 06:55:19;;;;;;;10.48;3.22;;;;;;;4.40;77.99;92777.78;5104430;28;20054;-44
2021/01/08 06:57:54;;;;;;;11.13;5.75;;;;;;;4.27;77.94;92777.03;5103621;28;20027;-45
2021/01/08 07:00:29;;;;;;;13.02;4.63;;;;;;;4.37;77.48;92773.41;5102607;28;20020;-46
2021/01/08 07:03:06;;;;;;;17.80;9.23;;;;;;;4.48;77.44;92772.44;5103115;28;20023;-46
2021/01/08 07:05:31;;;;;;;17.52;4.60;;;;;;;4.60;77.47;92779.91;5104573;28;20065;-44
2021/01/08 07:07:58;;;;;;;5.38;3.20;;;;;;;4.58;77.03;92782.44;5101134;28;20024;-47
2021/01/08 07:10:23;;;;;;;6.25;2.78;;;;;;;4.52;76.63;92798.22;5103183;28;20066;-46
2021/01/08 07:12:54;;;;;;;10.95;6.85;;;;;;;4.77;76.98;92793.25;5096183;28;20032;-50
2021/01/08 07:15:20;;;;;;;7.13;4.97;;;;;;;4.90;76.10;92793.22;5093300;28;20050;-51
2021/01/08 07:17:50;;;;;;;4.68;4.10;;;;;;;5.01;75.62;92798.47;5093589;28;20496;-53
2021/01/08 07:20:17;;;;;;;4.28;2.58;;;;;;;4.94;76.59;92807.31;5093388;28;20488;-52
2021/01/08 07:22:42;;;;;;;5.80;3.97;;;;;;;4.88;76.95;92808.69;5100792;28;20031;-51
2021/01/08 07:25:12;;;;;;;6.10;4.53;;;;;;;4.89;77.04;92799.25;5094392;28;20046;-55
2021/01/08 07:27:41;;;;;;;4.80;3.88;;;;;;;4.98;76.75;92791.31;5096913;28;20023;-53
2021/01/08 07:30:10;;;;;;;4.68;4.13;;;;;;;5.12;76.61;92794.78;5102355;28;20400;-49
2021/01/08 07:32:47;;;;;;;7.50;4.53;;;;;;;5.29;75.45;92792.41;5102030;28;20055;-51
2021/01/08 07:35:29;;;;;;;4.43;3.17;;;;;;;5.39;74.64;92788.00;5101778;28;20028;-50
2021/01/08 07:38:06;;;;;;;3.13;2.42;;;;;;;5.51;75.59;92788.47;5101751;28;20077;-47
2021/01/08 07:40:37;;;;;;;4.78;2.88;;;;;;;5.50;75.56;92774.03;5100341;28;20093;-48
2021/01/08 07:43:09;;;;;;;9.60;5.18;;;;;;;5.55;74.68;92773.19;5102914;28;20110;-48
2021/01/08 07:45:45;;;;;;;15.98;6.47;;;;;;;5.47;75.73;92769.63;5103545;28;20045;-51
2021/01/08 07:48:25;;;;;;;8.75;6.28;;;;;;;5.47;75.90;92769.63;5103360;28;20032;-52
2021/01/08 07:51:10;;;;;;;3.45;2.83;;;;;;;5.42;75.93;92751.31;5103514;28;20020;-49
2021/01/08 07:53:47;;;;;;;2.15;1.95;;;;;;;5.69;75.88;92749.97;5101413;28;20016;-58
2021/01/08 07:56:17;;;;;;;3.95;2.75;;;;;;;5.78;75.07;92752.22;5113110;28;20080;-55
2021/01/08 07:58:45;;;;;;;2.65;2.40;;;;;;;5.95;75.22;92746.38;5113123;28;20028;-53
2021/01/08 08:01:12;;;;;;;2.95;1.73;;;;;;;6.20;74.45;92741.25;5107815;28;20361;-57
2021/01/08 08:03:40;;;;;;;2.45;1.60;;;;;;;6.53;73.20;92759.56;5104503;28;20035;-57
2021/01/08 08:06:06;;;;;;;6.88;5.00;;;;;;;6.69;73.30;92745.41;5091792;28;20024;-57
2021/01/08 08:08:33;;;;;;;7.47;3.33;;;;;;;6.49;73.35;92726.28;5092037;28;20559;-55
2021/01/08 08:11:12;;;;;;;6.53;3.72;;;;;;;6.84;72.48;92750.25;5090501;28;20655;-53
2021/01/08 08:13:37;;;;;;;9.25;5.50;;;;;;;6.89;72.60;92725.38;5090413;28;20035;-55
2021/01/08 08:16:04;;;;;;;24.00;11.38;;;;;;;7.21;71.90;92735.94;5091331;28;20107;-58
2021/01/08 08:18:29;;;;;;;14.30;6.63;;;;;;;7.54;70.56;92748.66;5091055;28;20054;-57
2021/01/08 08:21:10;;;;;;;11.90;5.40;;;;;;;7.82;70.05;92744.34;5091181;28;20052;-54
2021/01/08 08:23:37;;;;;;;19.77;9.82;;;;;;;8.17;68.87;92755.16;5091080;28;20036;-59
2021/01/08 08:26:04;;;;;;;20.80;9.98;;;;;;;8.34;67.96;92752.59;5090387;28;20066;-59
2021/01/08 08:28:30;;;;;;;12.65;6.28;;;;;;;8.19;66.92;92740.84;5092047;28;20032;-48
2021/01/08 08:30:56;;;;;;;11.90;6.10;;;;;;;8.14;67.13;92726.00;5091068;28;20454;-48
2021/01/08 08:33:22;;;;;;;11.38;6.18;;;;;;;8.26;67.13;92704.41;5091948;28;20039;-46
2021/01/08 08:35:49;;;;;;;15.02;9.48;;;;;;;8.22;67.43;92710.25;5091984;28;20057;-47
2021/01/08 08:38:14;;;;;;;17.45;8.23;;;;;;;8.33;68.06;92725.66;5091667;28;20501;-49
2021/01/08 08:40:40;;;;;;;13.60;7.70;;;;;;;8.58;68.03;92720.28;5091657;28;20059;-48
2021/01/08 08:43:05;;;;;;;16.50;8.63;;;;;;;8.49;67.47;92691.34;5090402;28;20233;-47
2021/01/08 08:45:34;;;;;;;11.45;5.82;;;;;;;8.69;66.77;92719.91;5091367;28;20114;-50
2021/01/08 08:48:06;;;;;;;8.93;6.22;;;;;;;8.53;68.43;92708.22;5092119;28;20554;-55
2021/01/08 08:50:33;;;;;;;11.35;6.65;;;;;;;8.47;69.74;92704.91;5092051;28;20028;-57
2021/01/08 08:53:09;;;;;;;13.18;7.20;;;;;;;9.05;69.05;92710.06;5091224;28;20036;-58
2021/01/08 08:55:35;;;;;;;11.48;7.78;;;;;;;9.27;67.27;92702.28;5091716;28;20104;-57
2021/01/08 08:58:03;;;;;;;11.70;5.32;;;;;;;9.36;67.06;92694.13;5091580;28;20048;-55
2021/01/08 09:00:29;;;;;;;11.65;6.18;;;;;;;9.11;68.66;92691.34;5094276;28;20055;-53
2021/01/08 09:02:54;;;;;;;8.77;5.82;;;;;;;9.00;67.35;92686.25;5091533;28;20070;-55
2021/01/08 09:05:20;;;;;;;10.70;6.32;;;;;;;8.84;68.11;92673.81;5091380;28;20020;-56
2021/01/08 09:07:52;;;;;;;10.52;6.47;;;;;;;8.88;69.19;92696.19;5091761;28;20036;-56
2021/01/08 09:10:22;;;;;;;10.10;6.68;;;;;;;8.89;69.76;92669.41;5091213;28;20044;-58
2021/01/08 09:13:14;;;;;;;23.00;10.68;;;;;;;8.89;70.68;92670.13;5090028;28;20044;-53
2021/01/08 09:15:45;;;;;;;14.32;8.27;;;;;;;8.86;71.11;92674.00;5091457;28;20412;-55
2021/01/08 09:18:41;;;;;;;17.17;8.40;;;;;;;8.96;71.14;92668.63;5090272;28;20400;-47
2021/01/08 09:21:20;;;;;;;52.25;24.85;;;;;;;8.98;71.19;92688.81;5091336;28;20028;-49
2021/01/08 09:23:47;;;;;;;22.02;13.30;;;;;;;8.74;71.85;92697.72;5106199;28;20023;-53
2021/01/08 09:26:13;;;;;;;46.55;20.48;;;;;;;8.21;74.62;92694.28;5110357;28;20027;-49
2021/01/08 09:28:46;;;;;;;49.03;19.73;;;;;;;8.21;74.96;92697.03;5111657;28;20026;-45
2021/01/08 09:31:12;;;;;;;31.23;16.25;;;;;;;8.23;74.84;92683.47;5111855;28;20419;-46
2021/01/08 09:33:38;;;;;;;31.13;14.57;;;;;;;8.26;75.11;92671.41;5111472;28;20023;-45
2021/01/08 09:36:05;;;;;;;29.90;15.85;;;;;;;8.23;75.93;92683.47;5111837;28;20020;-46
2021/01/08 09:38:31;;;;;;;34.55;19.15;;;;;;;8.35;76.35;92682.59;5111520;28;20103;-47
2021/01/08 09:40:57;;;;;;;44.28;18.58;;;;;;;8.29;76.71;92679.28;5099309;28;20385;-46
2021/01/08 09:43:23;;;;;;;25.45;13.38;;;;;;;8.18;78.27;92681.66;5091074;28;20032;-47
2021/01/08 09:46:06;;;;;;;24.27;13.20;;;;;;;8.21;78.99;92667.53;5089947;28;20047;-45
2021/01/08 09:48:34;;;;;;;21.42;11.95;;;;;;;8.31;79.12;92662.97;5095656;28;20424;-45
2021/01/08 09:51:04;;;;;;;14.80;8.32;;;;;;;8.36;78.32;92675.78;5107143;28;20393;-46
2021/01/08 09:53:30;;;;;;;18.80;10.38;;;;;;;8.37;79.01;92677.25;5100232;28;20408;-46
2021/01/08 09:56:17;;;;;;;21.98;13.65;;;;;;;8.55;78.47;92669.88;5100795;28;20026;-45
2021/01/08 09:58:43;;;;;;;23.60;15.20;;;;;;;8.48;78.50;92669.88;5100210;28;20021;-46
2021/01/08 10:01:12;;;;;;;21.52;12.88;;;;;;;8.56;78.46;92663.09;5100701;28;20019;-44
2021/01/08 10:03:38;;;;;;;;;;;;;;;8.62;77.52;92671.88;5105164;28;20030;-46
2021/01/08 10:06:09;;;;;;;44.63;20.88;;;;;;;8.62;76.88;92663.59;5111882;27;20002;-45
2021/01/08 10:08:35;;;;;;;35.53;21.45;;;;;;;8.61;76.68;92655.91;5115084;28;20522;-46
2021/01/08 10:11:01;;;;;;;33.08;18.02;;;;;;;8.58;77.71;92660.50;5102900;28;20051;-44
2021/01/08 10:13:26;;;;;;;25.27;14.65;;;;;;;8.52;78.04;92654.47;5113061;28;20035;-48
2021/01/08 10:15:54;;;;;;;21.73;10.60;;;;;;;8.57;77.95;92644.56;5113403;28;20023;-46
2021/01/08 10:18:23;;;;;;;39.83;19.67;;;;;;;8.67;77.46;92640.66;5108467;28;20046;-46
2021/01/08 10:20:53;;;;;;;21.88;12.65;;;;;;;8.65;78.25;92635.00;5096748;28;20036;-48
2021/01/08 10:23:23;;;;;;;21.75;12.82;;;;;;;8.71;78.21;92616.25;5104735;28;20030;-47
2021/01/08 10:25:48;;;;;;;24.92;12.00;;;;;;;8.77;78.00;92616.78;5111180;28;20107;-45
2021/01/08 10:28:15;;;;;;;22.38;11.30;;;;;;;8.86;77.77;92621.69;5101446;28;20106;-45
2021/01/08 10:30:43;;;;;;;20.85;12.20;;;;;;;8.83;77.20;92594.56;5109620;28;20437;-46
2021/01/08 10:33:09;;;;;;;21.05;10.85;;;;;;;8.82;75.97;92602.09;5112053;28;20059;-46
2021/01/08 10:35:35;;;;;;;26.52;13.20;;;;;;;8.74;75.36;92597.91;5104710;28;20107;-46
2021/01/08 10:38:01;;;;;;;46.63;20.15;;;;;;;8.71;75.30;92607.25;5105344;28;20039;-46
2021/01/08 10:40:26;;;;;;;96.38;31.45;;;;;;;8.43;75.96;92605.53;5090866;28;20024;-45
2021/01/08 10:42:53;;;;;;;70.93;31.00;;;;;;;8.54;75.66;92594.13;5090675;28;20173;-46
2021/01/08 10:45:18;;;;;;;33.50;15.88;;;;;;;8.31;75.68;92590.72;5098282;28;20095;-49
2021/01/08 10:47:44;;;;;;;19.63;11.20;;;;;;;8.33;75.83;92599.91;5103149;28;20058;-47
2021/01/08 10:50:11;;;;;;;15.23;9.13;;;;;;;8.20;77.50;92597.34;5112532;28;20050;-44
2021/01/08 10:52:36;;;;;;;19.13;10.38;;;;;;;8.11;77.23;92589.66;5101419;28;20111;-45
2021/01/08 10:55:03;;;;;;;28.27;15.65;;;;;;;8.14;77.67;92594.03;5105898;28;20106;-44
2021/01/08 10:57:28;;;;;;;20.52;12.15;;;;;;;8.27;78.74;92588.34;5112401;28;20023;-45
2021/01/08 10:59:54;;;;;;;23.73;13.82;;;;;;;8.20;79.77;92591.84;5099107;28;20034;-44
2021/01/08 11:02:19;;;;;;;16.42;9.38;;;;;;;8.37;79.37;92589.25;5095896;28;20032;-47
2021/01/08 11:04:46;;;;;;;10.80;7.85;;;;;;;8.49;79.22;92595.06;5101075;28;20039;-45
2021/01/08 11:07:11;;;;;;;20.27;11.55;;;;;;;8.45;79.38;92569.22;5102962;28;20124;-47
2021/01/08 11:09:37;;;;;;;16.10;9.20;;;;;;;8.38;76.93;92556.97;5101390;28;20063;-48
2021/01/08 11:12:03;;;;;;;15.18;9.77;;;;;;;8.61;76.34;92568.59;5104902;28;20072;-45
2021/01/08 11:14:28;;;;;;;13.20;8.00;;;;;;;8.80;75.93;92570.91;5111961;28;20035;-43
2021/01/08 11:16:54;;;;;;;17.85;8.15;;;;;;;8.83;75.28;92556.03;5112851;28;20042;-44
2021/01/08 11:19:20;;;;;;;19.20;9.10;;;;;;;8.93;74.80;92560.38;5112316;27;20460;-44
2021/01/08 11:21:46;;;;;;;11.43;7.07;;;;;;;9.09;74.72;92567.25;5112189;28;20019;-45
2021/01/08 11:24:12;;;;;;;14.48;7.88;;;;;;;9.22;74.69;92563.50;5103646;28;20051;-44
2021/01/08 11:26:37;;;;;;;48.47;29.98;;;;;;;9.34;74.16;92547.22;5112330;28;20130;-44
2021/01/08 11:29:02;;;;;;;31.65;16.95;;;;;;;9.60;73.41;92555.66;5112193;28;20030;-45
2021/01/08 11:31:35;;;;;;;25.23;16.23;;;;;;;9.60;73.00;92544.66;5112078;28;20027;-46
2021/01/08 11:34:02;;;;;;;26.90;15.50;;;;;;;9.73;72.28;92538.09;5105199;28;20023;-44
2021/01/08 11:36:27;;;;;;;11.93;8.60;;;;;;;9.87;71.56;92539.25;5104416;28;20110;-45
2021/01/08 11:38:54;;;;;;;17.58;9.85;;;;;;;9.82;72.21;92520.94;5112320;27;20535;-44